Карточка аэропорта ULAA

Внимание!
Информация на этой странице в стадии наполнения.
Если вы не увидели какой-то информации, или заметили неточность - пожалуйста сообщите нам!
Спасибо!
Команда RU-STAFF
Название аэропортаТалаги
Название аэропорта (англ.)Talagi
Превышение62 ft. (18.9 m.)
Координаты64°36.018', 40°43.002'
Высота перехода3000FT
Эшелон переходаQFE>=760mm:FL040; QFE<760=>733:FL050; QFE<733:FL060
Коды ответчика3120-3127
Зона ОрВДАрхангельск РПИ (ULAA)
Данные METARULAA 241430Z 15005MPS 080V220 9999 BKN013CB 10/08 Q1008 R08/290060 NOSIG RMK QFE755/1007
Проноз погоды (TAF)C0R ULAA 142200Z 1422/1524 03003MPS 9999 SCT020 TEMPO 1422/1424 VRB01MPS 6000 -TSRA FEW004 BKN016CB TEMPO 1500/1503 VRB01MPS 0500 FG SCT003 TEMPO 1506/1517 34003G09MPS SCT020CB
NOTAMshow/hide NOTAM
AWOS   TABLE

Информация о ВПП


Диспетчерские позиции

Позывной Наименование органа УВД Частота
ULAA_APPАрхангельск-Подход122.0
ULAA_TWRАрхангельск-Вышка121.8



Спутниковое изображение